CheckWX is a tool to help pilots better visualize weather data.  It is not intended as a substitute for an official pre-flight weather briefing.

03:12:39 UTC

KRDK METAR
Red Oak Municipal Airport
Red Oak, Iowa, USA
Current

18 mins ago

KRDK 260255Z AUTO 29004KT 10SM FEW032 BKN055 OVC070 22/21 A2997 RMK AO2
Observed
May-26 @ 02:55 UTC
Wind
  • 290° at 4 KTS
Visibility
10 SM
Flight Rules
VFR
Cloud Levels
  • Few at 3,200' AGL
  • Broken at 5,500' AGL
  • Overcast at 7,000' AGL
Temperature
22°C / 72°F
Dewpoint
21°C / 70°F
Humidity
94%
Altimeter
29.97" Hg
Pressure
1014.92 hPa
Previous

38 mins ago

KRDK 260235Z AUTO 00000KT 10SM BKN050 OVC070 22/21 A2996 RMK AO2
Observed
May-26 @ 02:35 UTC
Visibility
10 SM
Flight Rules
VFR
Cloud Levels
  • Broken at 5,000' AGL
  • Overcast at 7,000' AGL
Temperature
22°C / 72°F
Dewpoint
21°C / 70°F
Humidity
94%
Altimeter
29.96" Hg
Pressure
1014.52 hPa
Previous

58 mins ago

KRDK 260215Z AUTO 00000KT 10SM FEW043 BKN050 OVC060 22/21 A2997 RMK AO2
Observed
May-26 @ 02:15 UTC
Visibility
10 SM
Flight Rules
VFR
Cloud Levels
  • Few at 4,300' AGL
  • Broken at 5,000' AGL
  • Overcast at 6,000' AGL
Temperature
22°C / 72°F
Dewpoint
21°C / 70°F
Humidity
94%
Altimeter
29.97" Hg
Pressure
1014.92 hPa